»·PEaware :: N416PT L52-L88

N416PT :: L52-L88

FLIGHT INFORMATION

Flight Status: Arrived
Operator: Privately registered:
United States
More flights under this callsign
Pilot: Jeff S. (20204)
Aircraft: CESSNA 172 SKYHAWK
(C172)
More flights by this aircraft type
Origin: L52 Oceano Co
United States
Destination: L88 New Cuyama
United States
More flights between these airports :: More routes between these airports
Route:
File this flight plan on PilotEdge
Remarks:
Altitude:
(Current/Filed)
5,500ft
Speed:
(Current/Filed)
105kts
Departed: 05-Oct-18 08:53 PM
Arrived: 05-Oct-18 09:26 PM
Distance/Time
Traveled:
47nm/0:33
Distance/Time
To Go:
Arrived

Flight Plot

Page will automatically refresh every two minutes.


Map Options




Map Legend


Flown Route
Filed Route
Departure Airport
Arrival Airport
Navaid (VOR, NDB)
Fix

Horizontal Profiles

Position Reports

Time Latitude Longitude Heading Altitude Ground
Speed
05-Oct-18 20:49 35.101913 -120.623949 123 17ft 15kts
05-Oct-18 20:50 35.099462 -120.619533 50 17ft 0kts
05-Oct-18 20:51 35.099462 -120.619533 50 17ft 0kts
05-Oct-18 20:52 35.099463 -120.619533 50 17ft 0kts
05-Oct-18 20:53 35.099462 -120.619533 50 17ft 0kts
05-Oct-18 20:54 35.099462 -120.619533 50 17ft 0kts
05-Oct-18 20:55 35.102465 -120.623729 308 184ft 50kts
05-Oct-18 20:56 35.094185 -120.623754 110 960ft 86kts
05-Oct-18 20:57 35.089876 -120.595289 70 1808ft 81kts
05-Oct-18 20:58 35.098780 -120.570137 39 2556ft 80kts
05-Oct-18 20:59 35.112198 -120.549054 21 3315ft 74kts
05-Oct-18 21:00 35.125361 -120.528073 62 4006ft 86kts
05-Oct-18 21:01 35.123309 -120.497549 95 4660ft 92kts
05-Oct-18 21:02 35.125610 -120.468093 58 5263ft 91kts
05-Oct-18 21:03 35.136656 -120.437107 73 5587ft 107kts
05-Oct-18 21:04 35.140437 -120.394880 85 5658ft 130kts
05-Oct-18 21:05 35.134795 -120.348143 97 5652ft 140kts
05-Oct-18 21:06 35.129940 -120.298663 96 5342ft 147kts
05-Oct-18 21:07 35.120335 -120.250851 100 5311ft 142kts
05-Oct-18 21:08 35.113499 -120.204015 96 5427ft 138kts
05-Oct-18 21:09 35.106829 -120.157566 96 5487ft 139kts
05-Oct-18 21:10 35.098244 -120.111579 96 5483ft 141kts
05-Oct-18 21:11 35.087919 -120.065951 102 5521ft 137kts
05-Oct-18 21:12 35.070157 -120.024061 120 5437ft 140kts
05-Oct-18 21:13 35.048603 -119.985052 119 5377ft 137kts
05-Oct-18 21:14 35.029920 -119.945398 117 5386ft 134kts
05-Oct-18 21:15 35.007767 -119.908562 119 5378ft 134kts
05-Oct-18 21:16 34.988164 -119.869963 121 5405ft 133kts
05-Oct-18 21:17 34.971279 -119.829933 105 5401ft 133kts
05-Oct-18 21:18 34.959291 -119.787204 105 5408ft 132kts
05-Oct-18 21:19 34.945304 -119.744684 119 5130ft 141kts
05-Oct-18 21:20 34.927608 -119.706795 143 3751ft 120kts
05-Oct-18 21:21 34.926826 -119.715420 46 3313ft 91kts
05-Oct-18 21:22 34.931692 -119.684942 109 2909ft 88kts
05-Oct-18 21:23 34.938420 -119.681257 296 2495ft 89kts
05-Oct-18 21:24 34.945926 -119.705812 230 2905ft 77kts
05-Oct-18 21:25 34.930347 -119.693698 118 3016ft 93kts
05-Oct-18 21:26 34.920738 -119.667907 96 2941ft 82kts
05-Oct-18 21:27 34.934647 -119.672399 296 2489ft 74kts
05-Oct-18 21:28 34.941223 -119.688699 296 2167ft 34kts
05-Oct-18 21:29 34.942618 -119.691054 295 2167ft 0kts
05-Oct-18 21:30 34.942618 -119.691054 294 2167ft 0kts
05-Oct-18 21:31 34.942618 -119.691054 294 2167ft 0kts
05-Oct-18 21:32 34.942618 -119.691054 294 2167ft 0kts
05-Oct-18 21:33 34.942618 -119.691054 294 2167ft 0kts
05-Oct-18 21:34 34.942618 -119.691054 294 2167ft 0kts
05-Oct-18 21:35 34.942618 -119.691054 294 2167ft 0kts
05-Oct-18 21:36 34.942618 -119.691054 294 2167ft 0kts
05-Oct-18 21:37 34.942618 -119.691054 294 2167ft 0kts
05-Oct-18 21:38 34.942618 -119.691054 294 2167ft 0kts
05-Oct-18 21:39 34.942618 -119.691054 294 2167ft 0kts
05-Oct-18 21:40 34.942618 -119.691054 294 2167ft 0kts
05-Oct-18 21:41 34.942618 -119.691054 294 2167ft 0kts
05-Oct-18 21:42 34.942618 -119.691054 294 2167ft 0kts
05-Oct-18 21:43 34.942618 -119.691054 294 2167ft 0kts

Navigation Log

Ident Type
Flight plan parsing failed, navigation log unavailable